sensor_id;sensor_type;location;lat;lon;timestamp;pressure;altitude;pressure_sealevel;temperature;humidity
47280;BME280;34064;44.942;0.008;2023-08-06T00:00:58;99015.19;;;19.36;61.19
47280;BME280;34064;44.942;0.008;2023-08-06T00:03:25;99013.16;;;19.38;60.99
47280;BME280;34064;44.942;0.008;2023-08-06T00:05:51;99005.91;;;19.38;60.97
47280;BME280;34064;44.942;0.008;2023-08-06T00:08:17;99008.47;;;19.40;61.06
47280;BME280;34064;44.942;0.008;2023-08-06T00:10:44;99014.84;;;19.39;61.23
47280;BME280;34064;44.942;0.008;2023-08-06T00:13:10;99017.19;;;19.42;61.22
47280;BME280;34064;44.942;0.008;2023-08-06T00:15:36;99005.41;;;19.43;61.23
47280;BME280;34064;44.942;0.008;2023-08-06T00:18:03;99009.44;;;19.47;61.14
47280;BME280;34064;44.942;0.008;2023-08-06T00:20:29;99014.31;;;19.52;61.06
47280;BME280;34064;44.942;0.008;2023-08-06T00:22:55;99008.75;;;19.53;60.77
47280;BME280;34064;44.942;0.008;2023-08-06T00:25:22;99009.25;;;19.57;60.82
47280;BME280;34064;44.942;0.008;2023-08-06T00:27:48;99014.00;;;19.55;61.08
47280;BME280;34064;44.942;0.008;2023-08-06T00:30:14;99014.81;;;19.55;60.96
47280;BME280;34064;44.942;0.008;2023-08-06T00:32:40;99015.50;;;19.57;61.18
47280;BME280;34064;44.942;0.008;2023-08-06T00:35:07;99017.84;;;19.60;60.87
47280;BME280;34064;44.942;0.008;2023-08-06T00:37:33;99018.88;;;19.59;60.95
47280;BME280;34064;44.942;0.008;2023-08-06T00:40:00;99018.88;;;19.59;60.75
47280;BME280;34064;44.942;0.008;2023-08-06T00:42:26;99019.69;;;19.60;60.99
47280;BME280;34064;44.942;0.008;2023-08-06T00:44:52;99026.59;;;19.62;60.96
47280;BME280;34064;44.942;0.008;2023-08-06T00:47:19;99026.59;;;19.62;60.99
47280;BME280;34064;44.942;0.008;2023-08-06T00:49:45;99022.88;;;19.63;60.76
47280;BME280;34064;44.942;0.008;2023-08-06T00:52:12;99020.19;;;19.63;60.91
47280;BME280;34064;44.942;0.008;2023-08-06T00:54:40;99020.19;;;19.63;60.75
47280;BME280;34064;44.942;0.008;2023-08-06T00:57:07;99016.50;;;19.64;60.87
47280;BME280;34064;44.942;0.008;2023-08-06T00:59:35;99023.56;;;19.66;60.80
47280;BME280;34064;44.942;0.008;2023-08-06T01:02:02;99031.84;;;19.64;60.75
47280;BME280;34064;44.942;0.008;2023-08-06T01:04:28;99030.28;;;19.61;60.63
47280;BME280;34064;44.942;0.008;2023-08-06T01:07:19;99036.38;;;19.63;60.72
47280;BME280;34064;44.942;0.008;2023-08-06T01:12:41;99033.00;;;19.61;60.74
47280;BME280;34064;44.942;0.008;2023-08-06T01:15:19;99044.78;;;19.60;60.67
47280;BME280;34064;44.942;0.008;2023-08-06T01:17:48;99041.75;;;19.63;60.86
47280;BME280;34064;44.942;0.008;2023-08-06T01:20:14;99049.00;;;19.63;60.73
47280;BME280;34064;44.942;0.008;2023-08-06T01:22:40;99039.06;;;19.63;60.95
47280;BME280;34064;44.942;0.008;2023-08-06T01:25:07;99045.31;;;19.64;60.96
47280;BME280;34064;44.942;0.008;2023-08-06T01:27:48;99043.44;;;19.64;60.83
47280;BME280;34064;44.942;0.008;2023-08-06T01:30:34;99053.22;;;19.66;60.96
47280;BME280;34064;44.942;0.008;2023-08-06T01:33:05;99054.03;;;19.66;60.53
47280;BME280;34064;44.942;0.008;2023-08-06T01:35:33;99053.22;;;19.66;60.69
47280;BME280;34064;44.942;0.008;2023-08-06T01:38:03;99049.84;;;19.63;60.96
47280;BME280;34064;44.942;0.008;2023-08-06T01:40:29;99056.22;;;19.62;60.84
47280;BME280;34064;44.942;0.008;2023-08-06T01:42:56;99052.88;;;19.60;61.00
47280;BME280;34064;44.942;0.008;2023-08-06T01:45:22;99049.34;;;19.60;61.00
47280;BME280;34064;44.942;0.008;2023-08-06T01:47:48;99053.91;;;19.59;60.81
47280;BME280;34064;44.942;0.008;2023-08-06T01:50:15;99057.59;;;19.58;60.78
47280;BME280;34064;44.942;0.008;2023-08-06T01:52:41;99054.56;;;19.53;61.06
47280;BME280;34064;44.942;0.008;2023-08-06T01:55:07;99057.44;;;19.52;61.05
47280;BME280;34064;44.942;0.008;2023-08-06T01:57:34;99058.63;;;19.49;61.14
47280;BME280;34064;44.942;0.008;2023-08-06T02:00:00;99058.63;;;19.49;61.08
47280;BME280;34064;44.942;0.008;2023-08-06T02:02:27;99058.63;;;19.49;61.04
47280;BME280;34064;44.942;0.008;2023-08-06T02:04:53;99060.31;;;19.50;60.98
47280;BME280;34064;44.942;0.008;2023-08-06T02:07:19;99057.44;;;19.52;60.88
47280;BME280;34064;44.942;0.008;2023-08-06T02:09:45;99047.84;;;19.49;61.01
47280;BME280;34064;44.942;0.008;2023-08-06T02:12:12;99064.66;;;19.51;60.97
47280;BME280;34064;44.942;0.008;2023-08-06T02:14:38;99057.75;;;19.48;60.95
47280;BME280;34064;44.942;0.008;2023-08-06T02:17:05;99056.94;;;19.48;61.08
47280;BME280;34064;44.942;0.008;2023-08-06T02:19:31;99059.78;;;19.46;61.03
47280;BME280;34064;44.942;0.008;2023-08-06T02:21:57;99061.47;;;19.47;61.18
47280;BME280;34064;44.942;0.008;2023-08-06T02:24:24;99067.34;;;19.51;61.09
47280;BME280;34064;44.942;0.008;2023-08-06T02:26:50;99063.81;;;19.51;61.17
47280;BME280;34064;44.942;0.008;2023-08-06T02:29:18;99064.66;;;19.51;61.17
47280;BME280;34064;44.942;0.008;2023-08-06T02:31:44;99078.97;;;19.52;61.05
47280;BME280;34064;44.942;0.008;2023-08-06T02:34:10;99079.81;;;19.52;61.06
47280;BME280;34064;44.942;0.008;2023-08-06T02:36:37;99076.97;;;19.54;61.17
47280;BME280;34064;44.942;0.008;2023-08-06T02:39:03;99077.78;;;19.54;61.14
47280;BME280;34064;44.942;0.008;2023-08-06T02:41:29;99082.34;;;19.54;61.03
47280;BME280;34064;44.942;0.008;2023-08-06T02:43:56;99089.59;;;19.53;61.14
47280;BME280;34064;44.942;0.008;2023-08-06T02:46:22;99088.91;;;19.51;60.97
47280;BME280;34064;44.942;0.008;2023-08-06T02:48:48;99089.06;;;19.49;61.11
47280;BME280;34064;44.942;0.008;2023-08-06T02:51:15;99083.88;;;19.48;61.22
47280;BME280;34064;44.942;0.008;2023-08-06T02:53:41;99081.19;;;19.48;61.27
47280;BME280;34064;44.942;0.008;2023-08-06T02:56:07;99084.88;;;19.47;61.21
47280;BME280;34064;44.942;0.008;2023-08-06T02:58:34;99077.13;;;19.44;61.08
47280;BME280;34064;44.942;0.008;2023-08-06T03:01:04;99079.50;;;19.39;61.31
47280;BME280;34064;44.942;0.008;2023-08-06T03:03:31;99083.50;;;19.35;61.26
47280;BME280;34064;44.942;0.008;2023-08-06T03:05:58;99089.25;;;19.31;61.16
47280;BME280;34064;44.942;0.008;2023-08-06T03:08:25;99088.72;;;19.28;61.40
47280;BME280;34064;44.942;0.008;2023-08-06T03:10:52;99081.81;;;19.25;61.09
47280;BME280;34064;44.942;0.008;2023-08-06T03:13:18;99086.72;;;19.22;61.19
47280;BME280;34064;44.942;0.008;2023-08-06T03:15:59;99092.28;;;19.20;61.41
47280;BME280;34064;44.942;0.008;2023-08-06T03:18:26;99092.59;;;19.17;61.40
47280;BME280;34064;44.942;0.008;2023-08-06T03:20:53;99090.91;;;19.16;61.21
47280;BME280;34064;44.942;0.008;2023-08-06T03:23:20;99094.59;;;19.15;61.22
47280;BME280;34064;44.942;0.008;2023-08-06T03:25:47;99091.22;;;19.13;61.06
47280;BME280;34064;44.942;0.008;2023-08-06T03:28:14;99100.34;;;19.12;61.38
47280;BME280;34064;44.942;0.008;2023-08-06T03:30:40;99095.97;;;19.11;61.23
47280;BME280;34064;44.942;0.008;2023-08-06T03:33:07;99099.66;;;19.10;61.12
47280;BME280;34064;44.942;0.008;2023-08-06T03:35:33;99088.53;;;19.05;60.96
47280;BME280;34064;44.942;0.008;2023-08-06T03:37:59;99096.59;;;18.96;61.27
47280;BME280;34064;44.942;0.008;2023-08-06T03:40:26;99103.97;;;18.94;61.45
47280;BME280;34064;44.942;0.008;2023-08-06T03:42:52;99106.13;;;18.91;61.43
47280;BME280;34064;44.942;0.008;2023-08-06T03:45:18;99104.63;;;18.88;61.68
47280;BME280;34064;44.942;0.008;2023-08-06T03:47:45;99104.94;;;18.85;61.47
47280;BME280;34064;44.942;0.008;2023-08-06T03:50:11;99108.66;;;18.84;61.42
47280;BME280;34064;44.942;0.008;2023-08-06T03:52:37;99112.34;;;18.83;61.36
47280;BME280;34064;44.942;0.008;2023-08-06T03:55:04;99117.88;;;18.81;61.44
47280;BME280;34064;44.942;0.008;2023-08-06T03:57:30;99114.34;;;18.81;61.34
47280;BME280;34064;44.942;0.008;2023-08-06T03:59:57;99120.56;;;18.81;61.48
47280;BME280;34064;44.942;0.008;2023-08-06T04:02:23;99115.19;;;18.81;61.50
47280;BME280;34064;44.942;0.008;2023-08-06T04:04:49;99119.72;;;18.81;61.65
47280;BME280;34064;44.942;0.008;2023-08-06T04:07:16;99113.34;;;18.82;61.51
47280;BME280;34064;44.942;0.008;2023-08-06T04:10:04;99121.44;;;18.82;61.52
47280;BME280;34064;44.942;0.008;2023-08-06T04:12:31;99127.97;;;18.79;61.52
47280;BME280;34064;44.942;0.008;2023-08-06T04:15:00;99129.97;;;18.77;61.50
47280;BME280;34064;44.942;0.008;2023-08-06T04:17:26;99135.03;;;18.80;61.58
47280;BME280;34064;44.942;0.008;2023-08-06T04:19:54;99133.38;;;18.79;61.39
47280;BME280;34064;44.942;0.008;2023-08-06T04:22:24;99132.50;;;18.79;61.44
47280;BME280;34064;44.942;0.008;2023-08-06T04:24:50;99131.81;;;18.77;61.68
47280;BME280;34064;44.942;0.008;2023-08-06T04:27:18;99137.06;;;18.78;61.45
47280;BME280;34064;44.942;0.008;2023-08-06T04:29:44;99137.06;;;18.78;61.42
47280;BME280;34064;44.942;0.008;2023-08-06T04:32:11;99130.50;;;18.81;61.32
47280;BME280;34064;44.942;0.008;2023-08-06T04:34:38;99137.56;;;18.82;61.41
47280;BME280;34064;44.942;0.008;2023-08-06T04:37:05;99140.09;;;18.83;61.43
47280;BME280;34064;44.942;0.008;2023-08-06T04:39:31;99141.94;;;18.83;61.43
47280;BME280;34064;44.942;0.008;2023-08-06T04:41:58;99139.25;;;18.83;61.37
47280;BME280;34064;44.942;0.008;2023-08-06T04:44:24;99142.94;;;18.82;61.74
47280;BME280;34064;44.942;0.008;2023-08-06T04:46:51;99144.63;;;18.83;61.44
47280;BME280;34064;44.942;0.008;2023-08-06T04:51:45;99142.94;;;18.82;61.47
47280;BME280;34064;44.942;0.008;2023-08-06T04:54:11;99148.34;;;18.82;61.40
47280;BME280;34064;44.942;0.008;2023-08-06T04:56:37;99152.03;;;18.81;61.28
47280;BME280;34064;44.942;0.008;2023-08-06T04:59:04;99149.50;;;18.79;61.37
47280;BME280;34064;44.942;0.008;2023-08-06T05:01:30;99151.34;;;18.79;61.35
47280;BME280;34064;44.942;0.008;2023-08-06T05:03:56;99154.34;;;18.76;61.51
47280;BME280;34064;44.942;0.008;2023-08-06T05:06:23;99160.59;;;18.76;61.55
47280;BME280;34064;44.942;0.008;2023-08-06T05:08:49;99167.81;;;18.76;61.42
47280;BME280;34064;44.942;0.008;2023-08-06T05:11:15;99164.09;;;18.77;61.37
47280;BME280;34064;44.942;0.008;2023-08-06T05:13:42;99172.88;;;18.79;61.65
47280;BME280;34064;44.942;0.008;2023-08-06T05:16:08;99167.47;;;18.79;61.59
47280;BME280;34064;44.942;0.008;2023-08-06T05:18:34;99175.56;;;18.79;61.46
47280;BME280;34064;44.942;0.008;2023-08-06T05:21:01;99169.34;;;18.78;61.47
47280;BME280;34064;44.942;0.008;2023-08-06T05:23:27;99176.56;;;18.78;61.55
47280;BME280;34064;44.942;0.008;2023-08-06T05:25:54;99181.81;;;18.79;61.82
47280;BME280;34064;44.942;0.008;2023-08-06T05:28:20;99176.06;;;18.82;61.66
47280;BME280;34064;44.942;0.008;2023-08-06T05:30:46;99179.44;;;18.84;61.67
47280;BME280;34064;44.942;0.008;2023-08-06T05:33:13;99187.34;;;18.86;61.46
47280;BME280;34064;44.942;0.008;2023-08-06T05:35:40;99190.91;;;18.86;61.27
47280;BME280;34064;44.942;0.008;2023-08-06T05:38:06;99194.44;;;18.87;61.58
47280;BME280;34064;44.942;0.008;2023-08-06T05:40:36;99197.81;;;18.89;61.56
47280;BME280;34064;44.942;0.008;2023-08-06T05:43:02;99202.19;;;18.90;61.40
47280;BME280;34064;44.942;0.008;2023-08-06T05:45:29;99203.88;;;18.91;61.45
47280;BME280;34064;44.942;0.008;2023-08-06T05:47:55;99203.75;;;18.93;61.34
47280;BME280;34064;44.942;0.008;2023-08-06T05:50:24;99199.22;;;18.93;61.26
47280;BME280;34064;44.942;0.008;2023-08-06T05:52:50;99197.50;;;18.92;61.54
47280;BME280;34064;44.942;0.008;2023-08-06T05:55:18;99203.44;;;18.96;61.44
47280;BME280;34064;44.942;0.008;2023-08-06T05:57:44;99208.63;;;18.97;61.33
47280;BME280;34064;44.942;0.008;2023-08-06T06:00:11;99203.94;;;18.99;61.29
47280;BME280;34064;44.942;0.008;2023-08-06T06:02:37;99208.16;;;19.02;61.14
47280;BME280;34064;44.942;0.008;2023-08-06T06:05:04;99200.44;;;19.07;61.21
47280;BME280;34064;44.942;0.008;2023-08-06T06:07:30;99199.09;;;19.11;61.09
47280;BME280;34064;44.942;0.008;2023-08-06T06:09:57;99210.38;;;19.15;60.77
47280;BME280;34064;44.942;0.008;2023-08-06T06:12:23;99210.75;;;19.20;60.70
47280;BME280;34064;44.942;0.008;2023-08-06T06:14:51;99213.09;;;19.23;60.70
47280;BME280;34064;44.942;0.008;2023-08-06T06:17:18;99217.16;;;19.27;60.52
47280;BME280;34064;44.942;0.008;2023-08-06T06:19:44;99227.63;;;19.30;60.42
47280;BME280;34064;44.942;0.008;2023-08-06T06:22:10;99225.25;;;19.36;60.33
47280;BME280;34064;44.942;0.008;2023-08-06T06:24:37;99226.47;;;19.41;60.29
47280;BME280;34064;44.942;0.008;2023-08-06T06:27:03;99219.88;;;19.44;60.15
47280;BME280;34064;44.942;0.008;2023-08-06T06:29:30;99223.97;;;19.48;60.07
47280;BME280;34064;44.942;0.008;2023-08-06T06:31:56;99228.34;;;19.49;59.70
47280;BME280;34064;44.942;0.008;2023-08-06T06:34:22;99233.38;;;19.52;59.68
47280;BME280;34064;44.942;0.008;2023-08-06T06:36:49;99234.06;;;19.54;59.62
47280;BME280;34064;44.942;0.008;2023-08-06T06:39:17;99230.38;;;19.55;59.44
47280;BME280;34064;44.942;0.008;2023-08-06T06:41:43;99218.25;;;19.59;59.38
47280;BME280;34064;44.942;0.008;2023-08-06T06:44:10;99212.69;;;19.61;59.29
47280;BME280;34064;44.942;0.008;2023-08-06T06:46:36;99209.00;;;19.62;59.34
47280;BME280;34064;44.942;0.008;2023-08-06T06:49:03;99209.50;;;19.66;59.55
47280;BME280;34064;44.942;0.008;2023-08-06T06:51:29;99217.91;;;19.71;59.14
47280;BME280;34064;44.942;0.008;2023-08-06T06:53:57;99213.88;;;19.75;58.89
47280;BME280;34064;44.942;0.008;2023-08-06T06:56:24;99219.47;;;19.82;58.04
47280;BME280;34064;44.942;0.008;2023-08-06T06:58:50;99211.41;;;19.90;58.41
47280;BME280;34064;44.942;0.008;2023-08-06T07:01:16;99224.88;;;19.98;58.13
47280;BME280;34064;44.942;0.008;2023-08-06T07:03:43;99220.00;;;20.02;57.54
47280;BME280;34064;44.942;0.008;2023-08-06T07:06:09;99222.50;;;20.03;57.23
47280;BME280;34064;44.942;0.008;2023-08-06T07:08:35;99230.94;;;20.08;57.01
47280;BME280;34064;44.942;0.008;2023-08-06T07:11:06;99228.56;;;20.14;56.54
47280;BME280;34064;44.942;0.008;2023-08-06T07:13:33;99228.56;;;20.14;56.10
47280;BME280;34064;44.942;0.008;2023-08-06T07:16:00;99240.91;;;20.16;55.53
47280;BME280;34064;44.942;0.008;2023-08-06T07:18:26;99236.53;;;20.15;56.15
47280;BME280;34064;44.942;0.008;2023-08-06T07:20:54;99243.59;;;20.16;56.14
47280;BME280;34064;44.942;0.008;2023-08-06T07:23:25;99232.47;;;20.19;55.76
47280;BME280;34064;44.942;0.008;2023-08-06T07:25:52;99241.22;;;20.21;55.91
47280;BME280;34064;44.942;0.008;2023-08-06T07:28:18;99243.75;;;20.23;54.36
47280;BME280;34064;44.942;0.008;2023-08-06T07:30:45;99240.22;;;20.22;54.78
47280;BME280;34064;44.942;0.008;2023-08-06T07:33:12;99247.13;;;20.25;54.96
47280;BME280;34064;44.942;0.008;2023-08-06T07:35:39;99246.28;;;20.24;54.84
47280;BME280;34064;44.942;0.008;2023-08-06T07:38:05;99240.72;;;20.34;54.00
47280;BME280;34064;44.942;0.008;2023-08-06T07:40:31;99237.00;;;20.35;53.26
47280;BME280;34064;44.942;0.008;2023-08-06T07:42:58;99242.22;;;20.37;54.12
47280;BME280;34064;44.942;0.008;2023-08-06T07:45:24;99239.34;;;20.47;54.27
47280;BME280;34064;44.942;0.008;2023-08-06T07:47:52;99239.16;;;20.56;52.05
47280;BME280;34064;44.942;0.008;2023-08-06T07:50:19;99231.56;;;20.52;52.92
47280;BME280;34064;44.942;0.008;2023-08-06T07:52:45;99226.34;;;20.58;52.66
47280;BME280;34064;44.942;0.008;2023-08-06T07:55:11;99225.31;;;20.68;52.95
47280;BME280;34064;44.942;0.008;2023-08-06T07:57:38;99224.28;;;20.77;53.31
47280;BME280;34064;44.942;0.008;2023-08-06T08:00:05;99210.09;;;20.92;53.02
47280;BME280;34064;44.942;0.008;2023-08-06T08:02:31;99208.00;;;21.02;52.82
47280;BME280;34064;44.942;0.008;2023-08-06T08:04:57;99207.28;;;21.16;51.59
47280;BME280;34064;44.942;0.008;2023-08-06T08:07:24;99204.91;;;21.13;51.52
47280;BME280;34064;44.942;0.008;2023-08-06T08:09:50;99206.25;;;21.17;51.47
47280;BME280;34064;44.942;0.008;2023-08-06T08:12:16;99202.84;;;21.24;51.15
47280;BME280;34064;44.942;0.008;2023-08-06T08:14:43;99213.63;;;21.24;50.77
47280;BME280;34064;44.942;0.008;2023-08-06T08:17:11;99216.72;;;21.21;51.32
47280;BME280;34064;44.942;0.008;2023-08-06T08:19:38;99215.03;;;21.19;51.48
47280;BME280;34064;44.942;0.008;2023-08-06T08:22:04;99222.13;;;21.12;51.71
47280;BME280;34064;44.942;0.008;2023-08-06T08:24:30;99227.91;;;21.09;51.44
47280;BME280;34064;44.942;0.008;2023-08-06T08:26:57;99224.31;;;21.17;51.65
47280;BME280;34064;44.942;0.008;2023-08-06T08:29:23;99218.34;;;21.30;51.74
47280;BME280;34064;44.942;0.008;2023-08-06T08:31:50;99210.72;;;21.33;51.29
47280;BME280;34064;44.942;0.008;2023-08-06T08:34:17;99210.44;;;21.51;50.74
47280;BME280;34064;44.942;0.008;2023-08-06T08:36:43;99206.03;;;21.59;50.40
47280;BME280;34064;44.942;0.008;2023-08-06T08:39:13;99215.28;;;21.64;50.76
47280;BME280;34064;44.942;0.008;2023-08-06T08:41:39;99201.41;;;21.91;49.52
47280;BME280;34064;44.942;0.008;2023-08-06T08:44:09;99186.44;;;22.03;49.86
47280;BME280;34064;44.942;0.008;2023-08-06T08:46:37;99176.47;;;22.19;49.35
47280;BME280;34064;44.942;0.008;2023-08-06T08:49:04;99183.50;;;22.28;49.75
47280;BME280;34064;44.942;0.008;2023-08-06T08:51:34;99186.34;;;22.50;49.59
47280;BME280;34064;44.942;0.008;2023-08-06T08:54:04;99177.22;;;22.51;49.11
47280;BME280;34064;44.942;0.008;2023-08-06T08:56:31;99187.03;;;22.52;48.71
47280;BME280;34064;44.942;0.008;2023-08-06T08:58:57;99191.97;;;22.48;49.20
47280;BME280;34064;44.942;0.008;2023-08-06T09:01:25;99190.09;;;22.49;48.99
47280;BME280;34064;44.942;0.008;2023-08-06T09:03:52;99182.06;;;22.70;48.65
47280;BME280;34064;44.942;0.008;2023-08-06T09:06:20;99177.22;;;22.81;47.59
47280;BME280;34064;44.942;0.008;2023-08-06T09:08:54;99185.81;;;22.69;48.54
47280;BME280;34064;44.942;0.008;2023-08-06T09:11:22;99190.28;;;22.62;48.58
47280;BME280;34064;44.942;0.008;2023-08-06T09:13:49;99208.38;;;22.47;48.24
47280;BME280;34064;44.942;0.008;2023-08-06T09:16:16;99205.44;;;22.33;48.68
47280;BME280;34064;44.942;0.008;2023-08-06T09:18:42;99209.53;;;22.29;48.64
47280;BME280;34064;44.942;0.008;2023-08-06T09:21:14;99191.78;;;22.50;48.42
47280;BME280;34064;44.942;0.008;2023-08-06T09:23:42;99189.16;;;22.71;47.36
47280;BME280;34064;44.942;0.008;2023-08-06T09:26:12;99168.31;;;22.87;47.46
47280;BME280;34064;44.942;0.008;2023-08-06T09:28:39;99172.13;;;23.08;47.16
47280;BME280;34064;44.942;0.008;2023-08-06T09:31:08;99167.34;;;23.25;46.70
47280;BME280;34064;44.942;0.008;2023-08-06T09:33:36;99152.53;;;23.42;46.50
47280;BME280;34064;44.942;0.008;2023-08-06T09:36:13;99147.31;;;23.62;45.71
47280;BME280;34064;44.942;0.008;2023-08-06T09:38:40;99146.25;;;23.85;45.45
47280;BME280;34064;44.942;0.008;2023-08-06T09:41:07;99150.38;;;23.81;43.98
47280;BME280;34064;44.942;0.008;2023-08-06T09:43:43;99148.78;;;23.87;44.07
47280;BME280;34064;44.942;0.008;2023-08-06T09:46:15;99156.41;;;23.98;44.13
47280;BME280;34064;44.942;0.008;2023-08-06T09:48:46;99146.06;;;24.08;44.60
47280;BME280;34064;44.942;0.008;2023-08-06T09:51:14;99153.56;;;24.06;44.70
47280;BME280;34064;44.942;0.008;2023-08-06T09:53:41;99158.09;;;23.99;45.35
47280;BME280;34064;44.942;0.008;2023-08-06T09:56:09;99154.44;;;24.13;44.21
47280;BME280;34064;44.942;0.008;2023-08-06T09:58:37;99161.63;;;23.99;44.34
47280;BME280;34064;44.942;0.008;2023-08-06T10:01:04;99173.31;;;23.78;44.96
47280;BME280;34064;44.942;0.008;2023-08-06T10:03:33;99167.44;;;23.96;45.35
47280;BME280;34064;44.942;0.008;2023-08-06T10:06:00;99155.53;;;24.19;44.99
47280;BME280;34064;44.942;0.008;2023-08-06T10:08:28;99147.88;;;24.29;44.38
47280;BME280;34064;44.942;0.008;2023-08-06T10:10:54;99157.69;;;24.30;42.96
47280;BME280;34064;44.942;0.008;2023-08-06T10:13:23;99148.66;;;24.58;43.53
47280;BME280;34064;44.942;0.008;2023-08-06T10:15:51;99147.97;;;24.50;43.38
47280;BME280;34064;44.942;0.008;2023-08-06T10:18:18;99159.13;;;24.26;43.58
47280;BME280;34064;44.942;0.008;2023-08-06T10:20:48;99178.63;;;24.08;43.43
47280;BME280;34064;44.942;0.008;2023-08-06T10:23:14;99178.59;;;23.87;44.04
47280;BME280;34064;44.942;0.008;2023-08-06T10:25:42;99193.25;;;23.71;44.22
47280;BME280;34064;44.942;0.008;2023-08-06T10:28:12;99168.75;;;24.01;43.47
47280;BME280;34064;44.942;0.008;2023-08-06T10:30:45;99150.66;;;24.43;43.40
47280;BME280;34064;44.942;0.008;2023-08-06T10:33:12;99149.31;;;24.60;43.29
47280;BME280;34064;44.942;0.008;2023-08-06T10:35:46;99141.03;;;24.75;42.74
47280;BME280;34064;44.942;0.008;2023-08-06T10:38:26;99141.16;;;24.96;42.56
47280;BME280;34064;44.942;0.008;2023-08-06T10:43:33;99134.31;;;25.13;42.51
47280;BME280;34064;44.942;0.008;2023-08-06T10:46:02;99138.72;;;25.21;42.05
47280;BME280;34064;44.942;0.008;2023-08-06T10:48:33;99147.94;;;25.27;41.72
47280;BME280;34064;44.942;0.008;2023-08-06T10:51:00;99137.06;;;25.27;41.01
47280;BME280;34064;44.942;0.008;2023-08-06T10:53:27;99158.75;;;25.13;41.48
47280;BME280;34064;44.942;0.008;2023-08-06T10:55:54;99160.78;;;24.91;41.59
47280;BME280;34064;44.942;0.008;2023-08-06T10:58:20;99150.78;;;25.05;41.90
47280;BME280;34064;44.942;0.008;2023-08-06T11:00:47;99132.03;;;25.23;41.60
47280;BME280;34064;44.942;0.008;2023-08-06T11:03:14;99138.47;;;25.16;41.31
47280;BME280;34064;44.942;0.008;2023-08-06T11:05:40;99145.94;;;24.94;40.92
47280;BME280;34064;44.942;0.008;2023-08-06T11:08:07;99163.63;;;24.76;41.26
47280;BME280;34064;44.942;0.008;2023-08-06T11:10:33;99174.53;;;24.54;41.26
47280;BME280;34064;44.942;0.008;2023-08-06T11:13:04;99162.75;;;24.69;41.71
47280;BME280;34064;44.942;0.008;2023-08-06T11:15:31;99149.13;;;25.04;41.03
47280;BME280;34064;44.942;0.008;2023-08-06T11:17:58;99140.06;;;25.45;40.28
47280;BME280;34064;44.942;0.008;2023-08-06T11:20:25;99130.22;;;25.58;40.22
47280;BME280;34064;44.942;0.008;2023-08-06T11:22:51;99132.53;;;25.61;40.05
47280;BME280;34064;44.942;0.008;2023-08-06T11:25:20;99131.69;;;25.67;40.60
47280;BME280;34064;44.942;0.008;2023-08-06T11:27:48;99130.84;;;25.53;41.02
47280;BME280;34064;44.942;0.008;2023-08-06T11:30:15;99138.38;;;25.44;41.19
47280;BME280;34064;44.942;0.008;2023-08-06T11:32:50;99140.47;;;25.42;41.32
47280;BME280;34064;44.942;0.008;2023-08-06T11:35:18;99123.34;;;25.75;41.02
47280;BME280;34064;44.942;0.008;2023-08-06T11:37:45;99118.34;;;25.79;40.74
47280;BME280;34064;44.942;0.008;2023-08-06T11:40:13;99132.53;;;25.61;40.64
47280;BME280;34064;44.942;0.008;2023-08-06T11:42:40;99131.06;;;25.45;41.13
47280;BME280;34064;44.942;0.008;2023-08-06T11:45:09;99145.84;;;25.29;41.14
47280;BME280;34064;44.942;0.008;2023-08-06T11:47:39;99152.06;;;25.16;41.70
47280;BME280;34064;44.942;0.008;2023-08-06T11:50:06;99140.41;;;25.35;41.64
47280;BME280;34064;44.942;0.008;2023-08-06T11:52:33;99112.47;;;25.82;40.96
47280;BME280;34064;44.942;0.008;2023-08-06T11:55:04;99099.25;;;26.12;39.38
47280;BME280;34064;44.942;0.008;2023-08-06T11:57:37;99090.44;;;26.37;39.00
47280;BME280;34064;44.942;0.008;2023-08-06T12:00:05;99073.81;;;26.59;37.93
47280;BME280;34064;44.942;0.008;2023-08-06T12:02:33;99080.09;;;26.59;37.86
47280;BME280;34064;44.942;0.008;2023-08-06T12:05:02;99092.69;;;26.54;37.50
47280;BME280;34064;44.942;0.008;2023-08-06T12:07:31;99104.94;;;26.18;37.19
47280;BME280;34064;44.942;0.008;2023-08-06T12:09:58;99099.06;;;25.94;38.10
47280;BME280;34064;44.942;0.008;2023-08-06T12:12:25;99101.16;;;25.92;38.25
47280;BME280;34064;44.942;0.008;2023-08-06T12:14:52;99106.81;;;25.83;38.72
47280;BME280;34064;44.942;0.008;2023-08-06T12:17:18;99097.00;;;25.82;38.58
47280;BME280;34064;44.942;0.008;2023-08-06T12:19:45;99108.50;;;25.71;39.25
47280;BME280;34064;44.942;0.008;2023-08-06T12:22:13;99107.22;;;25.60;39.12
47280;BME280;34064;44.942;0.008;2023-08-06T12:24:44;99117.25;;;25.40;39.49
47280;BME280;34064;44.942;0.008;2023-08-06T12:27:11;99116.16;;;25.27;39.33
47280;BME280;34064;44.942;0.008;2023-08-06T12:29:42;99131.97;;;25.10;39.63
47280;BME280;34064;44.942;0.008;2023-08-06T12:32:09;99134.91;;;25.08;40.14
47280;BME280;34064;44.942;0.008;2023-08-06T12:34:37;99131.16;;;25.10;40.42
47280;BME280;34064;44.942;0.008;2023-08-06T12:37:03;99133.69;;;25.18;40.35
47280;BME280;34064;44.942;0.008;2023-08-06T12:39:30;99117.88;;;25.48;39.57
47280;BME280;34064;44.942;0.008;2023-08-06T12:41:57;99086.47;;;26.06;38.59
47280;BME280;34064;44.942;0.008;2023-08-06T12:44:24;99067.59;;;26.45;38.44
47280;BME280;34064;44.942;0.008;2023-08-06T12:46:51;99074.72;;;26.39;37.41
47280;BME280;34064;44.942;0.008;2023-08-06T12:49:18;99078.09;;;26.35;38.36
47280;BME280;34064;44.942;0.008;2023-08-06T12:51:47;99078.50;;;26.38;38.44
47280;BME280;34064;44.942;0.008;2023-08-06T12:54:14;99080.59;;;26.36;37.93
47280;BME280;34064;44.942;0.008;2023-08-06T12:56:40;99064.63;;;26.53;37.90
47280;BME280;34064;44.942;0.008;2023-08-06T12:59:06;99060.34;;;26.77;37.98
47280;BME280;34064;44.942;0.008;2023-08-06T13:01:33;99059.06;;;26.87;37.41
47280;BME280;34064;44.942;0.008;2023-08-06T13:04:00;99072.53;;;26.68;37.17
47280;BME280;34064;44.942;0.008;2023-08-06T13:06:27;99074.03;;;26.51;37.39
47280;BME280;34064;44.942;0.008;2023-08-06T13:08:53;99088.53;;;26.38;37.93